createdAt,value
2022-09-16T00:01:00.296Z,10.73
2022-09-16T00:03:27.857Z,8.43
2022-09-16T00:05:55.158Z,10.57
2022-09-16T00:08:23.150Z,10.75
2022-09-16T00:10:51.091Z,9.20
2022-09-16T00:13:19.205Z,7.95
2022-09-16T00:15:49.271Z,9.27
2022-09-16T00:18:16.832Z,9.43
2022-09-16T00:20:50.379Z,10.85
2022-09-16T00:23:19.271Z,8.02
2022-09-16T00:25:59.520Z,10.05
2022-09-16T00:28:26.806Z,10.27
2022-09-16T00:30:54.244Z,9.88
2022-09-16T00:33:21.682Z,9.55
2022-09-16T00:35:48.900Z,10.43
2022-09-16T00:38:16.210Z,11.25
2022-09-16T00:40:50.764Z,10.82
2022-09-16T00:43:20.130Z,9.57
2022-09-16T00:46:03.109Z,8.88
2022-09-16T00:48:32.402Z,11.88
2022-09-16T00:51:05.295Z,10.85
2022-09-16T00:53:52.130Z,9.25
2022-09-16T00:56:23.805Z,10.02
2022-09-16T00:58:54.969Z,10.23
2022-09-16T01:01:22.872Z,11.05
2022-09-16T01:03:59.229Z,10.18
2022-09-16T01:06:27.574Z,10.20
2022-09-16T01:08:57.744Z,14.20
2022-09-16T01:11:25.760Z,10.82
2022-09-16T01:13:53.634Z,9.60
2022-09-16T01:16:34.029Z,11.30
2022-09-16T01:19:21.673Z,10.15
2022-09-16T01:22:03.643Z,12.20
2022-09-16T01:24:54.526Z,10.70
2022-09-16T01:27:39.589Z,9.88
2022-09-16T01:30:41.707Z,9.30
2022-09-16T01:33:35.829Z,11.93
2022-09-16T01:36:28.593Z,13.05
2022-09-16T01:39:41.743Z,11.15
2022-09-16T01:42:21.051Z,11.50
2022-09-16T01:44:57.181Z,13.43
2022-09-16T01:48:17.805Z,11.98
2022-09-16T01:51:09.246Z,14.63
2022-09-16T02:11:33.100Z,14.38
2022-09-16T02:14:18.706Z,9.50
2022-09-16T02:17:20.937Z,10.77
2022-09-16T02:20:18.145Z,11.80
2022-09-16T02:22:52.447Z,10.35
2022-09-16T02:25:20.401Z,11.02
2022-09-16T02:27:50.060Z,11.68
2022-09-16T02:30:21.549Z,9.65
2022-09-16T02:33:10.412Z,9.70
2022-09-16T02:35:39.852Z,11.20
2022-09-16T02:38:23.228Z,11.73
2022-09-16T02:40:57.702Z,11.13
2022-09-16T02:43:26.605Z,12.50
2022-09-16T02:46:21.882Z,10.80
2022-09-16T02:49:15.875Z,10.70
2022-09-16T02:52:20.987Z,9.93
2022-09-16T02:55:06.851Z,11.75
2022-09-16T02:57:34.152Z,13.07
2022-09-16T03:00:01.605Z,12.20
2022-09-16T03:02:29.127Z,13.82
2022-09-16T03:04:57.252Z,12.23
2022-09-16T03:07:24.514Z,9.45
2022-09-16T03:09:52.366Z,12.88
2022-09-16T03:12:54.032Z,13.80
2022-09-16T03:15:43.213Z,13.93
2022-09-16T03:18:22.953Z,9.00
2022-09-16T03:21:21.975Z,11.98
2022-09-16T03:24:19.006Z,12.88
2022-09-16T03:27:12.083Z,14.52
2022-09-16T03:29:50.680Z,13.05
2022-09-16T03:32:43.711Z,18.88
2022-09-16T03:35:27.827Z,16.98
2022-09-16T03:38:00.780Z,15.70
2022-09-16T03:40:30.774Z,18.80
2022-09-16T03:42:58.959Z,15.40
2022-09-16T03:45:26.662Z,15.13
2022-09-16T03:47:54.342Z,14.52
2022-09-16T03:50:23.409Z,15.70
2022-09-16T03:52:50.607Z,13.57
2022-09-16T03:55:18.093Z,14.23
2022-09-16T03:57:45.294Z,15.40
2022-09-16T04:00:13.207Z,14.25
2022-09-16T04:02:40.476Z,15.77
2022-09-16T04:05:09.036Z,10.27
2022-09-16T04:07:37.005Z,14.90
2022-09-16T04:10:06.106Z,17.38
2022-09-16T04:12:33.938Z,14.65
2022-09-16T04:15:01.285Z,13.23
2022-09-16T04:17:32.266Z,11.93
2022-09-16T04:19:59.843Z,15.35
2022-09-16T04:22:32.679Z,14.07
2022-09-16T04:25:00.090Z,16.10
2022-09-16T04:27:27.539Z,13.95
2022-09-16T04:29:54.788Z,14.57
2022-09-16T04:32:22.098Z,14.35
2022-09-16T04:34:49.415Z,12.27
2022-09-16T04:37:16.803Z,13.32
2022-09-16T04:39:44.021Z,12.60
2022-09-16T04:42:12.706Z,15.45
2022-09-16T04:44:40.584Z,14.82
2022-09-16T04:47:08.022Z,11.15
2022-09-16T04:49:35.337Z,15.35
2022-09-16T04:52:02.954Z,12.55
2022-09-16T04:54:30.387Z,12.32
2022-09-16T04:56:57.819Z,12.15
2022-09-16T04:59:25.086Z,12.70
2022-09-16T05:01:52.437Z,10.90
2022-09-16T05:04:19.820Z,13.52
2022-09-16T05:06:47.056Z,12.95
2022-09-16T05:09:14.328Z,9.80
2022-09-16T05:11:42.355Z,14.77
2022-09-16T05:14:16.178Z,11.77
2022-09-16T05:16:44.268Z,12.48
2022-09-16T05:19:13.941Z,10.70
2022-09-16T05:21:42.119Z,12.68
2022-09-16T05:24:12.427Z,11.65
2022-09-16T05:26:44.735Z,11.07
2022-09-16T05:29:17.557Z,12.63
2022-09-16T05:31:49.391Z,12.77
2022-09-16T05:34:23.278Z,12.63
2022-09-16T05:36:54.053Z,12.15
2022-09-16T05:39:24.071Z,9.60
2022-09-16T05:41:56.949Z,10.63
2022-09-16T05:44:24.925Z,11.27
2022-09-16T05:46:52.934Z,12.55
2022-09-16T05:49:23.877Z,10.48
2022-09-16T05:51:51.586Z,9.50
2022-09-16T05:54:19.937Z,12.52
2022-09-16T05:56:48.359Z,11.85
2022-09-16T05:59:17.242Z,12.50
2022-09-16T06:01:45.498Z,12.48
2022-09-16T06:04:16.746Z,13.40
2022-09-16T06:06:46.902Z,9.40
2022-09-16T06:09:23.819Z,10.90
2022-09-16T06:11:57.995Z,12.48
2022-09-16T06:14:28.302Z,10.45
2022-09-16T06:16:55.717Z,13.43
2022-09-16T06:19:23.132Z,11.55
2022-09-16T06:21:50.450Z,12.38
2022-09-16T06:24:20.317Z,13.20
2022-09-16T06:26:49.341Z,9.32
2022-09-16T06:29:17.650Z,9.30
2022-09-16T06:31:44.990Z,8.93
2022-09-16T06:34:18.547Z,10.35
2022-09-16T06:36:46.539Z,9.75
2022-09-16T06:39:16.226Z,7.22
2022-09-16T06:41:44.243Z,8.30
2022-09-16T06:44:11.641Z,10.23
2022-09-16T06:46:39.150Z,10.93
2022-09-16T06:49:06.835Z,9.32
2022-09-16T06:51:35.251Z,9.98
2022-09-16T06:54:08.482Z,7.90
2022-09-16T06:56:37.715Z,7.00
2022-09-16T06:59:05.616Z,7.30
2022-09-16T07:01:33.444Z,8.32
2022-09-16T07:04:05.754Z,9.82
2022-09-16T07:09:22.365Z,7.88
2022-09-16T07:11:49.647Z,6.20
2022-09-16T07:14:16.875Z,7.05
2022-09-16T07:16:44.176Z,6.68
2022-09-16T07:19:11.465Z,9.25
2022-09-16T07:21:38.749Z,6.75
2022-09-16T07:24:06.085Z,6.68
2022-09-16T07:26:37.737Z,8.40
2022-09-16T07:29:06.907Z,5.28
2022-09-16T07:31:37.332Z,6.25
2022-09-16T07:34:07.774Z,6.53
2022-09-16T07:36:45.093Z,11.00
2022-09-16T07:39:15.670Z,8.57
2022-09-16T07:41:45.355Z,8.13
2022-09-16T07:44:15.930Z,7.05
2022-09-16T07:46:43.400Z,6.22
2022-09-16T07:49:19.265Z,4.55
2022-09-16T07:51:46.539Z,7.78
2022-09-16T07:54:20.239Z,6.60
2022-09-16T07:56:48.039Z,6.05
2022-09-16T07:59:19.303Z,5.45
2022-09-16T08:01:49.172Z,6.15
2022-09-16T08:04:18.203Z,5.70
2022-09-16T08:06:45.476Z,5.53
2022-09-16T08:09:37.625Z,4.38
2022-09-16T08:12:02.865Z,4.80
2022-09-16T08:14:30.212Z,12.43
2022-09-16T08:16:57.950Z,5.10
2022-09-16T08:19:25.257Z,4.15
2022-09-16T08:21:52.525Z,6.22
2022-09-16T08:24:19.960Z,6.10
2022-09-16T08:26:47.264Z,6.45
2022-09-16T08:29:14.727Z,6.63
2022-09-16T08:31:42.182Z,6.68
2022-09-16T08:34:09.531Z,4.63
2022-09-16T08:36:36.794Z,6.57
2022-09-16T08:39:04.305Z,12.48
2022-09-16T08:42:02.426Z,8.20
2022-09-16T08:44:50.656Z,4.63
2022-09-16T08:47:42.666Z,5.18
2022-09-16T08:50:36.891Z,7.10
2022-09-16T08:53:17.873Z,5.28
2022-09-16T08:55:51.885Z,5.63
2022-09-16T09:01:33.764Z,6.03
2022-09-16T09:04:02.621Z,5.32
2022-09-16T09:06:50.821Z,6.28
2022-09-16T09:10:07.143Z,5.80
2022-09-16T09:12:51.561Z,4.60
2022-09-16T09:15:44.944Z,8.18
2022-09-16T09:18:30.101Z,7.50
2022-09-16T09:21:10.304Z,4.18
2022-09-16T09:24:08.486Z,5.88
2022-09-16T09:26:50.509Z,5.55
2022-09-16T09:29:26.645Z,4.10
2022-09-16T09:32:24.555Z,4.72
2022-09-16T09:35:00.736Z,4.88
2022-09-16T09:37:49.392Z,5.68
2022-09-16T09:40:32.910Z,5.88
2022-09-16T09:43:27.351Z,6.00
2022-09-16T09:46:08.605Z,6.13
2022-09-16T09:48:43.343Z,5.78
2022-09-16T09:51:43.573Z,8.07
2022-09-16T09:54:27.504Z,4.82
2022-09-16T09:57:24.838Z,5.35
2022-09-16T10:00:12.583Z,6.97
2022-09-16T10:02:49.541Z,5.35
2022-09-16T10:05:27.233Z,6.05
2022-09-16T10:08:00.505Z,6.15
2022-09-16T10:10:33.695Z,4.88
2022-09-16T10:13:13.102Z,8.00
2022-09-16T10:15:41.012Z,5.20
2022-09-16T10:18:30.148Z,5.15
2022-09-16T10:21:07.929Z,3.67
2022-09-16T10:23:36.627Z,3.85
2022-09-16T10:26:28.354Z,3.88
2022-09-16T10:29:19.632Z,6.95
2022-09-16T10:31:47.438Z,3.53
2022-09-16T10:34:34.620Z,6.88
2022-09-16T10:37:17.360Z,4.68
2022-09-16T10:39:53.654Z,5.28
2022-09-16T10:42:29.571Z,5.20
2022-09-16T10:45:30.148Z,4.30
2022-09-16T10:48:07.282Z,4.80
2022-09-16T10:50:34.925Z,5.47
2022-09-16T10:53:02.249Z,4.65
2022-09-16T10:55:38.042Z,2.97
2022-09-16T10:58:17.941Z,4.93
2022-09-16T11:01:02.915Z,2.92
2022-09-16T11:03:55.288Z,3.65
2022-09-16T11:06:51.183Z,5.05
2022-09-16T11:10:04.566Z,4.32
2022-09-16T11:12:52.774Z,3.45
2022-09-16T11:15:43.319Z,25.23
2022-09-16T11:18:31.109Z,6.72
2022-09-16T11:21:15.547Z,6.22
2022-09-16T11:24:09.457Z,9.68
2022-09-16T11:27:21.652Z,3.20
2022-09-16T11:30:00.330Z,3.53
2022-09-16T11:33:01.380Z,4.95
2022-09-16T11:35:57.338Z,5.53
2022-09-16T11:38:55.306Z,3.92
2022-09-16T11:42:09.274Z,3.63
2022-09-16T11:44:58.662Z,4.38
2022-09-16T11:48:06.083Z,3.47
2022-09-16T11:50:48.451Z,3.85
2022-09-16T11:53:43.960Z,4.82
2022-09-16T11:56:22.082Z,3.45
2022-09-16T11:59:28.591Z,3.90
2022-09-16T12:02:36.628Z,2.88
2022-09-16T12:05:17.580Z,5.93
2022-09-16T12:08:25.524Z,7.72
2022-09-16T12:10:59.962Z,5.30
2022-09-16T12:13:39.820Z,3.97
2022-09-16T12:16:18.996Z,6.13
2022-09-16T12:18:57.845Z,6.70
2022-09-16T12:21:36.155Z,9.38
2022-09-16T12:24:25.066Z,7.00
2022-09-16T12:27:12.737Z,6.60
2022-09-16T12:30:03.562Z,3.30
2022-09-16T12:33:02.150Z,7.55
2022-09-16T12:35:58.442Z,4.25
2022-09-16T12:38:25.988Z,3.03
2022-09-16T12:41:05.244Z,3.22
2022-09-16T12:43:45.774Z,8.82
2022-09-16T12:46:50.027Z,8.77
2022-09-16T12:49:36.579Z,4.28
2022-09-16T12:52:15.846Z,6.53
2022-09-16T12:55:23.309Z,5.25
2022-09-16T12:58:16.669Z,5.55
2022-09-16T13:01:21.091Z,5.68
2022-09-16T13:04:11.314Z,5.30
2022-09-16T13:06:49.287Z,4.50
2022-09-16T13:09:25.834Z,6.75
2022-09-16T13:15:08.219Z,5.28
2022-09-16T13:17:39.118Z,4.40
2022-09-16T13:20:33.853Z,4.57
2022-09-16T13:23:24.720Z,7.03
2022-09-16T13:26:08.056Z,5.78
2022-09-16T13:28:39.100Z,4.15
2022-09-16T13:31:15.364Z,4.00
2022-09-16T13:34:15.862Z,5.93
2022-09-16T13:36:43.651Z,3.97
2022-09-16T13:39:27.941Z,6.35
2022-09-16T13:44:38.571Z,6.22
2022-09-16T13:47:14.649Z,6.43
2022-09-16T13:49:54.317Z,7.07
2022-09-16T13:52:34.679Z,6.55
2022-09-16T13:55:10.562Z,4.57
2022-09-16T13:57:56.625Z,4.60
2022-09-16T14:00:53.138Z,4.95
2022-09-16T14:03:32.619Z,5.95
2022-09-16T14:06:31.266Z,8.48
2022-09-16T14:09:09.395Z,4.80
2022-09-16T14:12:03.967Z,5.80
2022-09-16T14:14:46.763Z,5.55
2022-09-16T14:17:28.608Z,4.03
2022-09-16T14:20:01.078Z,4.68
2022-09-16T14:22:29.004Z,3.50
2022-09-16T14:25:06.098Z,4.63
2022-09-16T14:27:39.764Z,6.70
2022-09-16T14:30:17.288Z,3.50
2022-09-16T14:32:47.034Z,3.38
2022-09-16T14:35:27.068Z,3.97
2022-09-16T14:38:02.474Z,4.40
2022-09-16T14:40:30.175Z,5.32
2022-09-16T14:43:08.049Z,5.03
2022-09-16T14:45:37.970Z,4.05
2022-09-16T14:48:12.413Z,5.07
2022-09-16T14:50:46.711Z,5.72
2022-09-16T14:53:41.660Z,7.30
2022-09-16T14:56:20.041Z,3.67
2022-09-16T14:58:48.168Z,5.03
2022-09-16T15:01:37.953Z,5.32
2022-09-16T15:04:18.584Z,5.22
2022-09-16T15:06:53.770Z,5.28
2022-09-16T15:09:58.332Z,3.83
2022-09-16T15:12:35.812Z,4.85
2022-09-16T15:15:16.036Z,7.13
2022-09-16T15:17:43.417Z,4.50
2022-09-16T15:20:26.650Z,3.83
2022-09-16T15:22:55.068Z,4.82
2022-09-16T15:25:34.359Z,4.63
2022-09-16T15:28:19.414Z,6.65
2022-09-16T15:30:50.285Z,3.50
2022-09-16T15:33:34.509Z,7.53
2022-09-16T15:38:31.407Z,3.92
2022-09-16T15:41:03.311Z,4.53
2022-09-16T15:43:40.187Z,6.43
2022-09-16T15:46:22.115Z,4.50
2022-09-16T15:48:57.107Z,6.72
2022-09-16T15:51:35.110Z,4.65
2022-09-16T15:54:54.269Z,5.30
2022-09-16T15:57:35.196Z,4.10
2022-09-16T16:00:16.212Z,5.10
2022-09-16T16:02:57.206Z,5.35
2022-09-16T16:05:31.209Z,4.60
2022-09-16T16:08:07.650Z,5.03
2022-09-16T16:10:38.433Z,4.63
2022-09-16T16:13:05.633Z,4.70
2022-09-16T16:15:39.009Z,4.53
2022-09-16T16:18:10.760Z,4.20
2022-09-16T16:20:39.059Z,6.45
2022-09-16T16:23:07.226Z,6.03
2022-09-16T16:25:34.491Z,8.90
2022-09-16T16:28:02.016Z,5.18
2022-09-16T16:30:29.272Z,6.15
2022-09-16T16:32:56.467Z,5.82
2022-09-16T16:35:23.658Z,5.18
2022-09-16T16:37:50.837Z,5.72
2022-09-16T16:40:18.133Z,4.22
2022-09-16T16:42:45.815Z,6.40
2022-09-16T16:45:14.581Z,4.95
2022-09-16T16:47:42.993Z,4.07
2022-09-16T16:50:11.014Z,4.93
2022-09-16T16:52:38.835Z,8.52
2022-09-16T16:55:07.072Z,6.72
2022-09-16T16:57:34.376Z,9.10
2022-09-16T17:00:01.780Z,5.30
2022-09-16T17:02:29.052Z,6.75
2022-09-16T17:04:56.301Z,5.65
2022-09-16T17:07:26.561Z,5.45
2022-09-16T17:09:57.531Z,5.93
2022-09-16T17:12:25.681Z,5.47
2022-09-16T17:14:52.923Z,6.35
2022-09-16T17:17:20.253Z,8.45
2022-09-16T17:19:47.454Z,7.03
2022-09-16T17:22:14.772Z,4.65
2022-09-16T17:24:42.010Z,7.45
2022-09-16T17:27:09.249Z,6.90
2022-09-16T17:29:36.484Z,5.43
2022-09-16T17:32:03.869Z,6.50
2022-09-16T17:34:31.994Z,6.40
2022-09-16T17:36:59.403Z,7.72
2022-09-16T17:39:27.028Z,8.57
2022-09-16T17:41:56.937Z,6.07
2022-09-16T17:44:24.927Z,7.85
2022-09-16T17:46:52.172Z,6.88
2022-09-16T17:49:24.750Z,6.90
2022-09-16T17:51:53.864Z,6.18
2022-09-16T17:54:21.948Z,6.80
2022-09-16T17:56:49.276Z,7.85
2022-09-16T17:59:19.188Z,9.35
2022-09-16T18:01:47.183Z,6.60
2022-09-16T18:04:14.450Z,6.60
2022-09-16T18:06:46.984Z,8.05
2022-09-16T18:09:16.610Z,6.65
2022-09-16T18:11:44.988Z,6.90
2022-09-16T18:14:14.418Z,8.15
2022-09-16T18:16:42.220Z,8.93
2022-09-16T18:19:09.865Z,6.18
2022-09-16T18:21:38.263Z,7.30
2022-09-16T18:24:11.073Z,8.68
2022-09-16T18:26:39.024Z,6.60
2022-09-16T18:29:10.072Z,6.03
2022-09-16T18:31:41.024Z,7.35
2022-09-16T18:34:09.013Z,7.78
2022-09-16T18:36:37.782Z,7.25
2022-09-16T18:39:07.797Z,8.32
2022-09-16T18:41:40.606Z,6.88
2022-09-16T18:44:17.207Z,10.40
2022-09-16T18:46:44.450Z,10.23
2022-09-16T18:49:14.873Z,8.73
2022-09-16T18:51:51.670Z,7.93
2022-09-16T18:54:29.266Z,7.30
2022-09-16T18:57:01.933Z,9.73
2022-09-16T18:59:32.323Z,8.27
2022-09-16T19:02:02.816Z,9.55
2022-09-16T19:04:36.968Z,10.93
2022-09-16T19:07:08.259Z,8.80
2022-09-16T19:09:39.810Z,9.60
2022-09-16T19:12:12.740Z,8.48
2022-09-16T19:14:41.042Z,8.65
2022-09-16T19:17:08.516Z,10.23
2022-09-16T19:19:35.992Z,9.30
2022-09-16T19:22:06.009Z,10.40
2022-09-16T19:24:34.181Z,10.48
2022-09-16T19:27:01.414Z,10.85
2022-09-16T19:29:28.736Z,8.73
2022-09-16T19:31:56.299Z,9.05
2022-09-16T19:34:23.647Z,8.65
2022-09-16T19:36:51.662Z,9.05
2022-09-16T19:39:21.190Z,8.30
2022-09-16T19:41:48.728Z,10.77
2022-09-16T19:44:18.112Z,7.45
2022-09-16T19:46:49.390Z,8.82
2022-09-16T19:49:23.152Z,9.27
2022-09-16T19:51:52.974Z,7.82
2022-09-16T19:54:24.028Z,9.73
2022-09-16T19:56:51.745Z,10.57
2022-09-16T19:59:20.356Z,8.50
2022-09-16T20:01:48.456Z,8.90
2022-09-16T20:04:19.818Z,8.85
2022-09-16T20:06:47.987Z,9.82
2022-09-16T20:09:15.208Z,8.63
2022-09-16T20:11:45.748Z,9.45
2022-09-16T20:14:20.522Z,6.97
2022-09-16T20:16:49.921Z,11.15
2022-09-16T20:19:19.999Z,9.85
2022-09-16T20:21:47.395Z,9.77
2022-09-16T20:24:21.218Z,8.48
2022-09-16T20:26:51.005Z,8.13
2022-09-16T20:29:20.036Z,8.82
2022-09-16T20:31:50.172Z,9.38
2022-09-16T20:34:17.774Z,11.93
2022-09-16T20:36:46.207Z,13.35
2022-09-16T20:39:15.127Z,9.40
2022-09-16T20:41:45.683Z,8.98
2022-09-16T20:44:16.689Z,10.48
2022-09-16T20:46:44.506Z,10.88
2022-09-16T20:49:16.145Z,10.30
2022-09-16T20:51:43.862Z,9.73
2022-09-16T20:54:14.616Z,11.57
2022-09-16T20:56:45.067Z,9.70
2022-09-16T20:59:15.246Z,8.25
2022-09-16T21:01:43.275Z,7.10
2022-09-16T21:04:17.981Z,7.85
2022-09-16T21:06:46.401Z,8.77
2022-09-16T21:09:16.268Z,7.38
2022-09-16T21:11:45.047Z,8.18
2022-09-16T21:14:17.650Z,8.20
2022-09-16T21:16:47.209Z,7.57
2022-09-16T21:19:15.294Z,8.30
2022-09-16T21:21:47.607Z,7.63
2022-09-16T21:24:16.446Z,7.45
2022-09-16T21:26:45.398Z,7.82
2022-09-16T21:29:20.288Z,12.05
2022-09-16T21:31:48.941Z,9.00
2022-09-16T21:34:21.379Z,7.00
2022-09-16T21:36:50.049Z,8.85
2022-09-16T21:39:19.874Z,6.43
2022-09-16T21:41:48.789Z,8.80
2022-09-16T21:44:16.714Z,7.50
2022-09-16T21:46:46.440Z,6.20
2022-09-16T21:49:24.385Z,7.03
2022-09-16T21:51:58.070Z,7.32
2022-09-16T21:54:26.766Z,7.75
2022-09-16T21:56:54.335Z,6.43
2022-09-16T21:59:21.876Z,6.97
2022-09-16T22:01:50.901Z,7.22
2022-09-16T22:04:22.780Z,8.25
2022-09-16T22:06:52.827Z,7.07
2022-09-16T22:09:20.327Z,6.32
2022-09-16T22:11:47.905Z,7.35
2022-09-16T22:14:16.273Z,8.20
2022-09-16T22:16:44.245Z,7.15
2022-09-16T22:19:17.098Z,7.35
2022-09-16T22:21:47.407Z,7.70
2022-09-16T22:24:20.791Z,5.63
2022-09-16T22:26:50.762Z,6.28
2022-09-16T22:29:18.223Z,7.68
2022-09-16T22:31:45.526Z,7.80
2022-09-16T22:34:12.991Z,5.80
2022-09-16T22:36:40.390Z,6.80
2022-09-16T22:39:14.526Z,7.78
2022-09-16T22:44:09.588Z,5.75
2022-09-16T22:46:46.983Z,7.35
2022-09-16T22:49:21.804Z,6.00
2022-09-16T22:51:49.173Z,6.00
2022-09-16T22:54:16.756Z,5.53
2022-09-16T22:56:45.065Z,5.97
2022-09-16T22:59:19.676Z,6.55
2022-09-16T23:01:47.919Z,6.45
2022-09-16T23:04:15.599Z,6.60
2022-09-16T23:06:43.334Z,7.07
2022-09-16T23:09:13.162Z,6.70
2022-09-16T23:11:40.549Z,6.38
2022-09-16T23:14:10.842Z,11.18
2022-09-16T23:16:38.812Z,6.05
2022-09-16T23:19:10.473Z,6.95
2022-09-16T23:21:39.295Z,9.02
2022-09-16T23:24:09.252Z,7.85
2022-09-16T23:26:38.630Z,4.82
2022-09-16T23:29:09.017Z,5.85
2022-09-16T23:31:40.483Z,7.20
2022-09-16T23:34:17.706Z,6.50
2022-09-16T23:36:45.848Z,4.72
2022-09-16T23:39:15.479Z,4.70
2022-09-16T23:41:43.658Z,6.00
2022-09-16T23:44:14.019Z,5.43
2022-09-16T23:46:41.710Z,5.88
2022-09-16T23:49:10.490Z,6.65
2022-09-16T23:51:38.033Z,6.20
2022-09-16T23:54:05.346Z,5.38
2022-09-16T23:56:32.843Z,5.07
2022-09-16T23:59:01.236Z,6.30
